Covington, Michigan
Current Conditions -  °F | °C
As of 12:15 PM on Thursday 18 Dec 2014 (Local Time) from KLNL Reporting Station
Broken Clouds Broken Clouds  
Wind Chill: 24°   Ceiling: 1200
Heat Index: 24°   Visibility: 10mi
Dew Point: 18°   Wind: 0mph
Humidity: 79%   Direction: NA
Pressure: 30.24"   Gusts: NA
Location:  46.54°N, 88.54°W
Report Text: KLNL 181715Z AUTO 00000KT 10SM BKN012 M05/M08 A3024 RMK AO2 T10471079
Loading
Personal Weather Stations






























Interactive Weather Map New forecast layout! Learn more

10-Day Weather Forecast

Advertisements
Track Severe Weather on mobile